Albertville, Wisconsin
Current Conditions -  °F | °C
As of 8:55 PM on Wednesday 22 Oct 2014 (Local Time) from KLUM Reporting Station
Overcast Overcast  
Wind Chill: 50°   Ceiling: 6000
Heat Index: 50°   Visibility: 10mi
Dew Point: 43°   Wind: 7mph
Humidity: 77%   Direction: 120°ESE
Pressure: 30.11"   Gusts: NA
Location:  45.0099°N, 91.7075°W
Report Text: KLUM 230155Z AUTO 12006KT 10SM SCT033 BKN060 OVC120 10/06 A3011 RMK AO2 T01010062
Loading
Personal Weather Stations






























Interactive Weather Map
Tropical Storm Tracking
New forecast layout! Learn more

10-Day Weather Forecast

Advertisements
Track Severe Weather on mobile